Time;durP1;ratioP1;P1;durP2;ratioP2;P2;SDS_P1;SDS_P2;PMS_P1;PMS_P2;Temp;Humidity;BMP_temperature;BMP_pressure;BME280_temperature;BME280_humidity;BME280_pressure;Samples;Min_cycle;Max_cycle;Signal;HPM_P1;HPM_P2
2022/12/04 00:00:54;;;;;;;5.93;4.15;;;;;;;14.22;100.00;101962.53;2093794;28;20055;-82
2022/12/04 00:02:16;;;;;;;7.93;4.55;;;;;;;14.15;100.00;101963.28;2095199;28;20093;-82
2022/12/04 00:03:38;;;;;;;9.68;5.55;;;;;;;14.07;100.00;101970.19;2104758;28;20625;-82
2022/12/04 00:05:01;;;;;;;9.60;4.45;;;;;;;14.00;100.00;101968.28;2104610;28;20511;-82
2022/12/04 00:06:24;;;;;;;13.50;7.57;;;;;;;13.95;100.00;101972.59;2094259;28;20416;-82
2022/12/04 00:07:46;;;;;;;16.02;8.75;;;;;;;13.90;100.00;101971.59;2092640;28;20052;-82
2022/12/04 00:09:08;;;;;;;10.05;6.38;;;;;;;13.89;100.00;101980.44;2095178;28;20496;-82
2022/12/04 00:10:30;;;;;;;13.75;8.57;;;;;;;13.87;100.00;101977.72;2090664;28;20048;-82
2022/12/04 00:11:52;;;;;;;21.17;14.10;;;;;;;13.88;100.00;101975.97;2091913;28;20529;-82
2022/12/04 00:13:15;;;;;;;10.35;6.70;;;;;;;13.88;100.00;101976.88;2088855;28;20036;-80
2022/12/04 00:14:37;;;;;;;8.68;5.47;;;;;;;13.90;100.00;101976.91;2095284;28;20056;-81
2022/12/04 00:16:00;;;;;;;10.02;5.88;;;;;;;13.90;100.00;101975.16;2082927;28;20045;-81
2022/12/04 00:17:22;;;;;;;7.93;4.45;;;;;;;13.89;100.00;101986.63;2084281;28;20107;-81
2022/12/04 00:18:45;;;;;;;7.68;4.93;;;;;;;13.88;100.00;101983.94;2091908;28;20048;-80
2022/12/04 00:20:09;;;;;;;9.50;5.60;;;;;;;13.86;100.00;101980.34;2086869;28;20076;-81
2022/12/04 00:21:31;;;;;;;9.30;5.32;;;;;;;13.81;100.00;101976.69;2084526;28;20044;-81
2022/12/04 00:22:52;;;;;;;10.18;6.45;;;;;;;13.76;100.00;101979.25;2092468;28;20056;-81
2022/12/04 00:24:15;;;;;;;10.18;6.35;;;;;;;13.73;100.00;101983.59;2086270;28;20045;-81
2022/12/04 00:25:37;;;;;;;10.20;5.75;;;;;;;13.73;100.00;101987.16;2083513;28;20056;-82
2022/12/04 00:27:00;;;;;;;10.35;5.38;;;;;;;13.71;100.00;101980.03;2084304;28;20081;-81
2022/12/04 00:28:22;;;;;;;11.38;6.30;;;;;;;13.70;100.00;101988.84;2083453;28;20062;-81
2022/12/04 00:29:45;;;;;;;11.10;7.72;;;;;;;13.70;100.00;101980.88;2083781;28;20037;-81
2022/12/04 00:31:10;;;;;;;9.20;5.78;;;;;;;13.69;100.00;101981.75;2092587;28;20310;-81
2022/12/04 00:32:32;;;;;;;9.75;6.25;;;;;;;13.68;100.00;101986.16;2087049;28;20037;-81
2022/12/04 00:33:55;;;;;;;13.38;6.10;;;;;;;13.68;100.00;101987.91;2078001;28;20049;-82
2022/12/04 00:35:17;;;;;;;10.90;7.45;;;;;;;13.68;100.00;101985.25;2084156;28;20562;-80
2022/12/04 00:36:39;;;;;;;13.00;7.63;;;;;;;13.66;100.00;101989.63;2086760;28;20479;-81
2022/12/04 00:38:02;;;;;;;9.52;5.95;;;;;;;13.64;100.00;101989.63;2081938;28;20093;-79
2022/12/04 00:39:24;;;;;;;12.05;7.68;;;;;;;13.64;100.00;101997.56;2088688;28;20059;-80
2022/12/04 00:40:49;;;;;;;11.32;7.10;;;;;;;13.65;100.00;101987.84;2093918;28;20048;-82
2022/12/04 00:42:12;;;;;;;7.13;4.88;;;;;;;13.66;100.00;101989.63;2077880;28;20085;-80
2022/12/04 00:43:34;;;;;;;8.90;4.40;;;;;;;13.68;100.00;101982.59;2082500;28;20037;-80
2022/12/04 00:44:56;;;;;;;9.52;6.43;;;;;;;13.69;100.00;101985.28;2088186;28;20053;-79
2022/12/04 00:46:20;;;;;;;10.85;6.72;;;;;;;13.67;100.00;101991.41;2094690;28;20087;-79
2022/12/04 00:47:42;;;;;;;9.40;6.28;;;;;;;13.63;100.00;101985.16;2089468;28;20037;-81
2022/12/04 00:49:05;;;;;;;14.38;9.90;;;;;;;13.59;100.00;101987.72;2086946;28;20106;-81
2022/12/04 00:50:26;;;;;;;13.10;8.27;;;;;;;13.50;100.00;101986.63;2086388;28;20052;-81
2022/12/04 00:51:48;;;;;;;12.20;8.02;;;;;;;13.45;100.00;101987.41;2086800;28;20063;-81
2022/12/04 00:53:10;;;;;;;12.05;6.55;;;;;;;13.43;100.00;101990.00;2089554;28;20045;-83
2022/12/04 00:54:32;;;;;;;11.77;6.40;;;;;;;13.42;100.00;101988.22;2073528;28;20050;-81
2022/12/04 00:55:54;;;;;;;9.38;5.57;;;;;;;13.42;100.00;101988.22;2082284;28;20037;-78
2022/12/04 00:57:16;;;;;;;9.23;5.90;;;;;;;13.43;100.00;101994.41;2086151;28;20073;-82
2022/12/04 00:58:38;;;;;;;11.00;5.80;;;;;;;13.45;100.00;101990.94;2090120;28;20055;-81
2022/12/04 01:00:00;;;;;;;9.20;6.30;;;;;;;13.46;100.00;101995.38;2078598;28;20042;-82
2022/12/04 01:01:25;;;;;;;10.10;5.57;;;;;;;13.46;100.00;101992.72;2083956;28;20055;-82
2022/12/04 01:02:47;;;;;;;10.23;6.30;;;;;;;13.48;100.00;101995.41;2070940;28;20497;-81
2022/12/04 01:04:09;;;;;;;10.95;5.72;;;;;;;13.46;100.00;101998.03;2097732;28;20054;-81
2022/12/04 01:05:31;;;;;;;8.48;5.60;;;;;;;13.46;100.00;102000.66;2092634;28;20037;-81
2022/12/04 01:06:53;;;;;;;8.00;5.57;;;;;;;13.47;100.00;102005.13;2080746;28;20140;-82
2022/12/04 01:08:14;;;;;;;9.60;5.40;;;;;;;13.48;100.00;102004.28;2090604;28;20036;-82
2022/12/04 01:09:37;;;;;;;9.15;5.63;;;;;;;13.48;100.00;102008.69;2094195;28;20044;-82
2022/12/04 01:11:00;;;;;;;8.23;5.30;;;;;;;13.45;100.00;102004.22;2086659;28;20053;-82
2022/12/04 01:12:22;;;;;;;10.02;6.13;;;;;;;13.44;100.00;102001.50;2086662;28;20052;-82
2022/12/04 01:13:44;;;;;;;9.48;6.00;;;;;;;13.43;100.00;102005.91;2078118;28;20049;-81
2022/12/04 01:15:08;;;;;;;9.18;6.03;;;;;;;13.38;100.00;102002.28;2086551;28;20060;-82
2022/12/04 01:16:34;;;;;;;9.30;5.72;;;;;;;13.36;100.00;101997.78;2078799;28;20041;-82
2022/12/04 01:17:55;;;;;;;9.30;5.60;;;;;;;13.31;100.00;101997.69;2083997;28;20139;-81
2022/12/04 01:19:18;;;;;;;9.85;6.15;;;;;;;13.30;100.00;101998.53;2078508;28;20576;-82
2022/12/04 01:20:39;;;;;;;11.55;5.90;;;;;;;13.28;100.00;101997.59;2078260;28;20434;-82
2022/12/04 01:22:02;;;;;;;7.72;5.13;;;;;;;13.29;100.00;101996.72;2083511;28;20466;-82
2022/12/04 01:23:25;;;;;;;10.68;6.22;;;;;;;13.29;100.00;101991.44;2086615;28;20543;-81
2022/12/04 01:24:47;;;;;;;8.95;5.60;;;;;;;13.32;100.00;101991.50;2078190;28;20475;-81
2022/12/04 01:26:10;;;;;;;10.32;5.85;;;;;;;13.34;100.00;101994.19;2078456;28;20085;-81
2022/12/04 01:27:32;;;;;;;9.48;6.28;;;;;;;13.35;100.00;101990.69;2092323;28;20158;-81
2022/12/04 01:28:55;;;;;;;11.57;6.80;;;;;;;13.36;100.00;101996.03;2085692;28;20045;-81
2022/12/04 01:30:16;;;;;;;9.15;7.03;;;;;;;13.38;100.00;102002.28;2081700;28;20443;-81
2022/12/04 01:31:40;;;;;;;10.75;6.82;;;;;;;13.40;100.00;101999.63;2083084;28;20044;-81
2022/12/04 01:33:02;;;;;;;10.00;6.57;;;;;;;13.42;100.00;102001.47;2084081;28;20614;-81
2022/12/04 01:34:25;;;;;;;9.85;6.20;;;;;;;13.46;100.00;101999.78;2082825;28;20057;-81
2022/12/04 01:35:53;;;;;;;8.63;6.32;;;;;;;13.52;100.00;101992.00;2091652;28;20040;-81
2022/12/04 01:37:15;;;;;;;10.57;6.13;;;;;;;13.59;100.00;101990.38;2095883;28;20051;-81
2022/12/04 01:38:37;;;;;;;9.20;5.25;;;;;;;13.65;100.00;101990.50;2093938;28;20044;-81
2022/12/04 01:40:00;;;;;;;;;;;;;;;13.63;100.00;101993.13;2078525;28;20095;-81
2022/12/04 01:41:23;;;;;;;10.65;6.38;;;;;;;13.69;100.00;101992.34;2075552;28;19925;-81
2022/12/04 01:42:46;;;;;;;11.30;5.78;;;;;;;13.70;100.00;101994.16;2083057;28;20496;-81
2022/12/04 01:44:17;;;;;;;8.82;5.88;;;;;;;13.70;100.00;101987.09;2082501;28;20041;-81
2022/12/04 01:45:41;;;;;;;9.63;5.88;;;;;;;13.69;100.00;101990.59;2089646;28;20269;-81
2022/12/04 01:47:05;;;;;;;8.38;5.50;;;;;;;13.69;100.00;101984.41;2078069;28;20073;-81
2022/12/04 01:48:30;;;;;;;9.07;5.72;;;;;;;13.69;100.00;101987.06;2083871;28;20578;-81
2022/12/04 01:49:52;;;;;;;8.48;5.32;;;;;;;13.69;100.00;101987.06;2091931;28;20052;-81
2022/12/04 01:51:20;;;;;;;10.18;5.88;;;;;;;13.71;100.00;101988.00;2088624;28;20095;-81
2022/12/04 01:52:42;;;;;;;9.63;6.88;;;;;;;13.68;100.00;101987.91;2086568;28;20439;-81
2022/12/04 01:54:08;;;;;;;9.55;6.00;;;;;;;13.68;100.00;101988.81;2089762;28;20790;-80
2022/12/04 01:55:30;;;;;;;9.10;5.95;;;;;;;13.64;100.00;101983.41;2078248;28;20119;-80
2022/12/04 01:56:54;;;;;;;;;;;;;;;13.54;100.00;101988.50;2083808;28;20068;-82
2022/12/04 01:58:20;;;;;;;10.55;6.55;;;;;;;13.52;100.00;101986.69;2077899;28;19958;-83
2022/12/04 01:59:47;;;;;;;10.57;6.68;;;;;;;13.50;100.00;101980.44;2082933;28;20045;-81
2022/12/04 02:01:10;;;;;;;8.75;6.07;;;;;;;13.49;100.00;101990.16;2086624;28;20148;-82
2022/12/04 02:02:37;;;;;;;8.77;6.10;;;;;;;13.47;100.00;101986.56;2079392;28;20052;-82
2022/12/04 02:04:00;;;;;;;11.43;6.18;;;;;;;13.48;100.00;101991.00;2083864;28;20140;-82
2022/12/04 02:05:23;;;;;;;9.45;6.63;;;;;;;13.49;100.00;101982.19;2091106;28;20135;-82
2022/12/04 02:06:45;;;;;;;8.82;6.32;;;;;;;13.49;100.00;101976.88;2089050;28;20095;-82
2022/12/04 02:08:07;;;;;;;12.85;6.80;;;;;;;13.48;100.00;101974.19;2077788;28;20958;-82
2022/12/04 02:09:30;;;;;;;10.30;6.75;;;;;;;13.45;100.00;101980.34;2088839;28;20093;-82
2022/12/04 02:11:04;;;;;;;9.63;6.43;;;;;;;13.42;100.00;101974.03;2094567;28;20048;-82
2022/12/04 02:12:34;;;;;;;10.45;6.15;;;;;;;13.39;100.00;101976.66;2087804;28;20033;-82
2022/12/04 02:14:07;;;;;;;14.90;6.63;;;;;;;13.34;100.00;101973.84;2086432;28;20053;-82
2022/12/04 02:15:40;;;;;;;9.70;5.72;;;;;;;13.34;100.00;101973.84;2093490;28;20090;-81
2022/12/04 02:17:11;;;;;;;8.60;5.75;;;;;;;13.34;100.00;101971.22;2087620;28;20144;-81
2022/12/04 02:18:41;;;;;;;8.30;5.82;;;;;;;13.35;100.00;101970.34;2090895;28;20062;-81
2022/12/04 02:20:30;;;;;;;8.93;6.05;;;;;;;13.38;100.00;101970.44;2086795;28;20091;-81
2022/12/04 02:21:54;;;;;;;10.13;6.15;;;;;;;13.39;100.00;101969.56;2088611;28;20087;-82
2022/12/04 02:23:40;;;;;;;10.07;6.32;;;;;;;13.39;100.00;101979.28;2085754;28;20048;-82
2022/12/04 02:25:13;;;;;;;9.75;5.40;;;;;;;13.37;100.00;101981.00;2082829;28;20090;-82
2022/12/04 02:26:46;;;;;;;10.63;7.25;;;;;;;13.35;100.00;101975.66;2087379;28;20055;-82
2022/12/04 02:28:18;;;;;;;12.90;7.65;;;;;;;13.33;100.00;101976.47;2090824;28;20391;-82
2022/12/04 02:29:51;;;;;;;11.23;7.15;;;;;;;13.32;100.00;101985.31;2085707;28;20045;-81
2022/12/04 02:31:17;;;;;;;10.18;6.93;;;;;;;13.31;100.00;101979.13;2086168;28;20496;-81
2022/12/04 02:32:46;;;;;;;11.60;6.47;;;;;;;13.34;100.00;101980.91;2093228;28;20508;-81
2022/12/04 02:34:16;;;;;;;10.27;6.78;;;;;;;13.36;100.00;101973.91;2089506;28;20102;-81
2022/12/04 02:35:43;;;;;;;11.40;7.18;;;;;;;13.36;100.00;101982.75;2085279;28;20049;-81
2022/12/04 02:37:11;;;;;;;10.68;5.80;;;;;;;13.40;100.00;101979.31;2087841;28;20071;-82
2022/12/04 02:38:37;;;;;;;9.85;6.78;;;;;;;13.45;100.00;101974.13;2080691;28;20045;-81
2022/12/04 02:40:06;;;;;;;10.20;6.80;;;;;;;13.47;100.00;101975.94;2090570;28;20113;-82
2022/12/04 02:41:35;;;;;;;12.10;7.68;;;;;;;13.49;100.00;101975.97;2090353;28;20099;-81
2022/12/04 02:43:02;;;;;;;10.57;7.38;;;;;;;13.47;100.00;101975.03;2091289;28;20049;-82
2022/12/04 02:44:30;;;;;;;10.88;6.28;;;;;;;13.46;100.00;101976.78;2088355;28;20077;-81
2022/12/04 02:45:58;;;;;;;9.27;6.13;;;;;;;13.47;100.00;101975.03;2079465;28;20050;-81
2022/12/04 02:47:24;;;;;;;10.15;5.75;;;;;;;13.46;100.00;101973.25;2088130;28;20048;-81
2022/12/04 02:48:48;;;;;;;9.27;6.00;;;;;;;13.50;100.00;101969.81;2097013;28;20036;-81
2022/12/04 02:50:14;;;;;;;12.15;7.38;;;;;;;13.52;100.00;101976.06;2087454;28;20056;-81
2022/12/04 02:51:39;;;;;;;8.95;5.65;;;;;;;13.53;100.00;101970.78;2092357;28;20057;-81
2022/12/04 02:53:07;;;;;;;9.40;5.80;;;;;;;13.51;100.00;101975.16;2077874;28;20060;-81
2022/12/04 02:54:35;;;;;;;10.50;6.68;;;;;;;13.50;100.00;101976.03;2083905;28;20446;-81
2022/12/04 02:56:02;;;;;;;11.35;7.22;;;;;;;13.49;100.00;101974.22;2078329;28;20501;-81
2022/12/04 02:57:29;;;;;;;11.15;7.00;;;;;;;13.46;100.00;101973.25;2086691;28;20474;-80
2022/12/04 02:58:56;;;;;;;11.68;7.22;;;;;;;13.39;100.00;101974.84;2082511;28;20133;-81
2022/12/04 03:00:21;;;;;;;10.88;7.18;;;;;;;13.35;100.00;101967.69;2076817;28;20135;-81
2022/12/04 03:01:48;;;;;;;10.32;6.85;;;;;;;13.34;100.00;101970.31;2083096;28;20493;-81
2022/12/04 03:03:18;;;;;;;11.13;6.18;;;;;;;13.33;100.00;101965.84;2077594;28;20417;-81
2022/12/04 03:04:41;;;;;;;9.52;5.80;;;;;;;13.36;100.00;101963.28;2076659;28;20248;-81
2022/12/04 03:06:08;;;;;;;9.27;6.03;;;;;;;13.41;100.00;101970.50;2083109;28;20459;-81
2022/12/04 03:07:35;;;;;;;10.40;6.80;;;;;;;13.49;100.00;101974.22;2094691;28;20063;-82
2022/12/04 03:09:03;;;;;;;12.20;7.88;;;;;;;13.55;100.00;101968.16;2094238;28;20447;-81
2022/12/04 03:10:29;;;;;;;11.55;7.50;;;;;;;13.66;100.00;101963.09;2083498;28;20068;-81
2022/12/04 03:11:57;;;;;;;13.18;8.85;;;;;;;13.73;100.00;101967.66;2076165;28;20140;-81
2022/12/04 03:13:22;;;;;;;12.45;8.57;;;;;;;13.81;100.00;101969.63;2081509;28;20057;-81
2022/12/04 03:14:51;;;;;;;14.25;9.40;;;;;;;13.90;100.00;101971.59;2091156;28;20041;-81
2022/12/04 03:16:18;;;;;;;15.48;10.75;;;;;;;13.98;100.00;101975.28;2078596;28;20080;-81
2022/12/04 03:17:46;;;;;;;12.90;8.05;;;;;;;14.01;100.00;101974.47;2075023;28;20088;-81
2022/12/04 03:19:14;;;;;;;13.70;9.10;;;;;;;13.98;100.00;101974.44;2092208;28;20140;-82
2022/12/04 03:20:38;;;;;;;13.88;8.55;;;;;;;13.91;100.00;101976.91;2088471;28;20070;-81
2022/12/04 03:22:08;;;;;;;15.00;8.93;;;;;;;13.84;100.00;101975.03;2080323;28;20053;-81
2022/12/04 03:23:34;;;;;;;17.52;10.45;;;;;;;13.80;100.00;101974.91;2077903;28;20375;-80
2022/12/04 03:24:56;;;;;;;16.95;11.68;;;;;;;13.81;100.00;101976.69;2092147;28;20140;-81
2022/12/04 03:26:21;;;;;;;;;;;;;;;13.77;100.00;101980.16;2086802;28;20048;-81
2022/12/04 03:27:51;;;;;;;13.80;7.90;;;;;;;13.81;100.00;101977.59;2083830;28;20460;-81
2022/12/04 03:29:19;;;;;;;13.18;8.63;;;;;;;13.83;100.00;101972.34;2088401;28;20090;-81
2022/12/04 03:30:45;;;;;;;15.15;9.75;;;;;;;13.82;100.00;101976.75;2082420;28;20116;-81
2022/12/04 03:32:13;;;;;;;17.95;10.05;;;;;;;13.80;100.00;101977.56;2092359;28;20090;-80
2022/12/04 03:33:39;;;;;;;12.82;9.27;;;;;;;13.76;100.00;101978.38;2087837;28;20475;-82
2022/12/04 03:35:07;;;;;;;18.15;13.63;;;;;;;13.71;100.00;101983.59;2088147;28;20060;-81
2022/12/04 03:36:34;;;;;;;21.00;15.50;;;;;;;13.68;100.00;101982.59;2087960;28;20382;-82
2022/12/04 03:38:01;;;;;;;42.03;34.30;;;;;;;13.67;100.00;101984.34;2080267;28;20459;-81
2022/12/04 03:39:26;;;;;;;20.05;14.93;;;;;;;13.70;100.00;101984.44;2089280;28;20044;-81
2022/12/04 03:40:56;;;;;;;22.35;15.63;;;;;;;13.76;100.00;101987.22;2094296;28;20049;-82
2022/12/04 03:42:21;;;;;;;17.48;11.55;;;;;;;13.84;100.00;101992.72;2088195;28;20505;-81
2022/12/04 03:43:51;;;;;;;15.25;11.10;;;;;;;13.84;100.00;101982.09;2095770;28;20054;-81
2022/12/04 03:45:21;;;;;;;14.52;9.57;;;;;;;13.80;100.00;101990.84;2082043;28;20046;-81
2022/12/04 03:46:52;;;;;;;12.43;9.35;;;;;;;13.74;100.00;101990.69;2086819;28;20033;-81
2022/12/04 03:48:22;;;;;;;22.83;17.17;;;;;;;13.65;100.00;101995.81;2088114;28;20547;-81
2022/12/04 03:49:50;;;;;;;12.30;8.60;;;;;;;13.62;100.00;101996.63;2089967;28;20090;-81
2022/12/04 03:51:18;;;;;;;15.60;10.63;;;;;;;13.56;100.00;101992.09;2089421;28;20061;-82
2022/12/04 03:52:47;;;;;;;17.92;12.73;;;;;;;13.51;100.00;101995.50;2085658;28;20381;-82
2022/12/04 03:54:14;;;;;;;17.35;14.18;;;;;;;13.48;100.00;101988.34;2092455;28;20700;-82
2022/12/04 03:55:43;;;;;;;16.80;13.18;;;;;;;13.45;100.00;101992.69;2087217;28;20115;-81
2022/12/04 03:57:11;;;;;;;22.95;16.95;;;;;;;13.41;100.00;101998.78;2096232;28;20055;-82
2022/12/04 03:58:37;;;;;;;16.20;12.25;;;;;;;13.37;100.00;101989.88;2091727;28;20057;-82
2022/12/04 04:00:04;;;;;;;17.08;11.95;;;;;;;13.33;100.00;101989.72;2082080;28;20049;-82
2022/12/04 04:01:33;;;;;;;17.70;12.68;;;;;;;13.30;100.00;101995.88;2094292;28;20052;-81
2022/12/04 04:02:58;;;;;;;15.80;10.57;;;;;;;13.31;100.00;101997.69;2094819;28;20044;-81
2022/12/04 04:04:30;;;;;;;16.85;12.52;;;;;;;13.35;100.00;101995.97;2087676;28;20045;-81
2022/12/04 04:05:57;;;;;;;14.65;10.70;;;;;;;13.35;100.00;101996.88;2089664;28;20126;-81
2022/12/04 04:07:28;;;;;;;33.17;24.58;;;;;;;13.37;100.00;101995.16;2090734;28;20442;-81
2022/12/04 04:08:55;;;;;;;20.45;14.00;;;;;;;13.42;100.00;101993.50;2095506;28;20551;-81
2022/12/04 04:10:22;;;;;;;20.17;14.73;;;;;;;13.43;100.00;101997.97;2087742;28;20500;-81
2022/12/04 04:11:47;;;;;;;28.77;18.27;;;;;;;13.44;100.00;101999.75;2093851;28;20195;-81
2022/12/04 04:25:19;;;;;;;10.68;7.15;;;;;;;13.35;100.00;102001.28;2097827;28;20048;-81
2022/12/04 04:26:44;;;;;;;11.07;7.38;;;;;;;13.39;100.00;102011.13;2088968;28;20053;-80
2022/12/04 04:28:27;;;;;;;13.73;7.57;;;;;;;13.43;100.00;102011.22;2092165;28;20095;-81
2022/12/04 04:29:51;;;;;;;11.60;7.20;;;;;;;13.44;100.00;102006.81;2088996;28;20045;-81
2022/12/04 04:31:25;;;;;;;12.80;8.18;;;;;;;13.45;100.00;102014.81;2101634;28;20048;-82
2022/12/04 04:32:55;;;;;;;13.30;8.90;;;;;;;13.44;100.00;102017.44;2098085;28;20131;-82
2022/12/04 04:34:25;;;;;;;11.20;8.07;;;;;;;13.40;100.00;102013.78;2096362;28;20118;-81
2022/12/04 04:35:57;;;;;;;13.30;9.07;;;;;;;13.36;100.00;102013.69;2103477;28;20048;-80
2022/12/04 04:37:31;;;;;;;13.73;9.20;;;;;;;13.29;100.00;102015.28;2094632;28;20044;-81
2022/12/04 04:39:00;;;;;;;21.85;12.93;;;;;;;13.24;100.00;102013.41;2091633;28;20478;-82
2022/12/04 04:40:27;;;;;;;15.77;11.05;;;;;;;13.22;100.00;102020.41;2102575;28;20059;-82
2022/12/04 04:41:53;;;;;;;16.58;10.15;;;;;;;13.21;100.00;102021.25;2103868;28;20958;-81
2022/12/04 04:43:21;;;;;;;13.00;8.82;;;;;;;13.18;100.00;102014.16;2089187;28;20081;-82
2022/12/04 04:44:51;;;;;;;16.67;10.10;;;;;;;13.18;100.00;102013.25;2102038;28;20060;-82
2022/12/04 04:46:21;;;;;;;19.35;11.30;;;;;;;13.15;100.00;102008.75;2097903;28;20063;-82
2022/12/04 04:47:47;;;;;;;20.05;11.05;;;;;;;13.13;100.00;102011.34;2103682;28;20499;-81
2022/12/04 04:49:11;;;;;;;12.63;8.10;;;;;;;13.10;100.00;102015.66;2088746;28;20045;-82
2022/12/04 04:50:35;;;;;;;12.75;8.85;;;;;;;13.06;100.00;102016.44;2084371;28;20056;-82
2022/12/04 04:52:01;;;;;;;15.30;8.88;;;;;;;13.03;100.00;102019.00;2084850;28;20104;-81
2022/12/04 04:53:27;;;;;;;13.38;8.68;;;;;;;12.98;100.00;102020.66;2091309;28;20546;-82
2022/12/04 04:54:48;;;;;;;14.45;8.52;;;;;;;12.92;100.00;102023.16;2101636;28;20609;-81
2022/12/04 04:56:11;;;;;;;15.80;10.02;;;;;;;12.91;100.00;102024.91;2094786;28;20044;-81
2022/12/04 04:57:36;;;;;;;17.67;10.57;;;;;;;12.91;100.00;102022.25;2085641;28;20049;-80
2022/12/04 04:58:58;;;;;;;22.77;13.38;;;;;;;12.92;100.00;102028.44;2084594;28;20041;-80
2022/12/04 05:00:24;;;;;;;17.48;12.20;;;;;;;12.93;100.00;102017.00;2084757;28;20053;-81
2022/12/04 05:01:48;;;;;;;17.50;12.18;;;;;;;12.93;100.00;102030.25;2109858;28;20043;-80
2022/12/04 05:03:09;;;;;;;19.15;12.32;;;;;;;12.95;100.00;102025.84;2103271;28;20155;-81
2022/12/04 05:04:31;;;;;;;16.90;11.27;;;;;;;12.95;100.00;102028.50;2089640;28;20057;-81
2022/12/04 05:05:53;;;;;;;17.88;10.70;;;;;;;12.96;100.00;102033.88;2094811;28;20530;-81
2022/12/04 05:07:17;;;;;;;14.57;10.27;;;;;;;12.98;100.00;102036.56;2106460;28;20047;-80
2022/12/04 05:08:38;;;;;;;16.48;10.85;;;;;;;12.98;100.00;102037.47;2091125;28;20051;-80
2022/12/04 05:10:00;;;;;;;15.45;10.18;;;;;;;12.99;100.00;102026.00;2078106;28;20049;-80
2022/12/04 05:11:23;;;;;;;14.75;10.30;;;;;;;13.01;100.00;102028.66;2081475;28;20519;-80
2022/12/04 05:12:44;;;;;;;15.63;9.77;;;;;;;13.02;100.00;102028.72;2094063;28;20077;-80
2022/12/04 05:14:08;;;;;;;15.48;7.90;;;;;;;13.03;100.00;102037.56;2094862;28;20072;-80
2022/12/04 05:15:30;;;;;;;13.35;7.90;;;;;;;13.05;100.00;102039.41;2100322;28;20059;-80
2022/12/04 05:16:53;;;;;;;14.18;7.30;;;;;;;13.07;100.00;102036.78;2109901;28;20688;-81
2022/12/04 05:18:14;;;;;;;11.25;6.95;;;;;;;13.09;100.00;102040.38;2105676;28;20097;-81
2022/12/04 05:19:55;;;;;;;13.55;7.55;;;;;;;13.11;100.00;102036.91;2094721;28;20134;-80
2022/12/04 05:21:16;;;;;;;11.30;7.47;;;;;;;13.12;100.00;102043.13;2097041;28;20071;-80
2022/12/04 05:22:41;;;;;;;11.55;7.70;;;;;;;13.16;100.00;102042.38;2097359;28;20139;-80
2022/12/04 05:24:02;;;;;;;10.80;6.90;;;;;;;13.17;100.00;102046.81;2085454;28;20083;-80
2022/12/04 05:25:24;;;;;;;12.70;7.97;;;;;;;13.20;100.00;102043.31;2094446;28;20132;-80
2022/12/04 05:26:46;;;;;;;10.68;7.43;;;;;;;13.23;100.00;102043.41;2100516;28;20040;-81
2022/12/04 05:28:08;;;;;;;11.35;6.97;;;;;;;13.24;100.00;102045.22;2098201;28;20115;-81
2022/12/04 05:29:29;;;;;;;10.02;6.53;;;;;;;13.26;100.00;102052.34;2098906;28;20044;-81
2022/12/04 05:30:55;;;;;;;12.25;7.03;;;;;;;13.28;100.00;102042.66;2089024;28;20588;-81
2022/12/04 05:32:16;;;;;;;9.43;6.13;;;;;;;13.29;100.00;102047.13;2077436;28;20053;-81
2022/12/04 05:33:39;;;;;;;12.15;6.43;;;;;;;13.29;100.00;102048.88;2086374;28;20102;-81
2022/12/04 05:35:02;;;;;;;11.50;7.03;;;;;;;13.30;100.00;102048.91;2094299;28;20048;-81
2022/12/04 05:36:23;;;;;;;9.40;5.57;;;;;;;13.32;100.00;102047.22;2093097;28;20052;-81
2022/12/04 05:37:47;;;;;;;10.00;5.93;;;;;;;13.33;100.00;102043.69;2087386;28;20037;-80
2022/12/04 05:39:09;;;;;;;11.65;6.50;;;;;;;13.37;100.00;102047.31;2099614;28;20113;-81
2022/12/04 05:40:31;;;;;;;9.35;5.35;;;;;;;13.37;100.00;102042.91;2091273;28;20045;-81
2022/12/04 05:41:52;;;;;;;12.38;6.50;;;;;;;13.40;100.00;102050.03;2103119;28;20074;-82
2022/12/04 05:43:15;;;;;;;10.95;6.70;;;;;;;13.39;100.00;102049.13;2089369;28;20094;-81
2022/12/04 05:44:38;;;;;;;9.45;5.65;;;;;;;13.40;100.00;102048.28;2095120;28;20107;-81
2022/12/04 05:46:00;;;;;;;11.77;7.20;;;;;;;13.42;100.00;102049.22;2091335;28;20050;-81
2022/12/04 05:47:22;;;;;;;12.30;5.78;;;;;;;13.42;100.00;102050.97;2095355;28;20134;-81
2022/12/04 05:48:43;;;;;;;13.48;8.02;;;;;;;13.43;100.00;102058.06;2100483;28;20040;-80
2022/12/04 05:50:07;;;;;;;12.63;7.90;;;;;;;13.43;100.00;102052.78;2087723;28;20049;-81
2022/12/04 05:51:29;;;;;;;15.40;9.20;;;;;;;13.41;100.00;102047.41;2091329;28;20056;-80
2022/12/04 05:52:53;;;;;;;12.48;8.15;;;;;;;13.42;100.00;102053.63;2091939;28;20052;-81
2022/12/04 05:54:14;;;;;;;15.02;8.27;;;;;;;13.41;100.00;102050.06;2094443;28;20401;-81
2022/12/04 05:55:37;;;;;;;13.63;8.45;;;;;;;13.42;100.00;102051.88;2085928;28;20143;-80
2022/12/04 05:56:59;;;;;;;12.68;8.18;;;;;;;13.48;100.00;102051.13;2092018;28;20467;-80
2022/12/04 05:58:21;;;;;;;11.05;6.53;;;;;;;13.52;100.00;102055.66;2090703;28;20055;-82
2022/12/04 05:59:43;;;;;;;13.73;8.00;;;;;;;13.58;100.00;102053.16;2098964;28;20131;-80
2022/12/04 06:01:11;;;;;;;11.45;6.00;;;;;;;13.65;100.00;102054.19;2102574;28;20085;-81
2022/12/04 06:02:33;;;;;;;15.88;9.20;;;;;;;13.74;100.00;102051.75;2102584;28;20063;-81
2022/12/04 06:03:56;;;;;;;15.90;8.77;;;;;;;13.82;100.00;102058.13;2104622;28;20071;-81
2022/12/04 06:05:18;;;;;;;20.55;11.00;;;;;;;13.88;100.00;102050.31;2093652;28;20037;-80
2022/12/04 06:06:41;;;;;;;19.30;10.45;;;;;;;13.94;100.00;102053.09;2096697;28;20052;-80
2022/12/04 06:08:04;;;;;;;14.80;9.02;;;;;;;13.94;100.00;102050.44;2086773;28;20547;-81
2022/12/04 06:09:26;;;;;;;13.32;8.27;;;;;;;13.93;100.00;102053.94;2087647;28;20448;-80
2022/12/04 06:10:48;;;;;;;13.65;7.72;;;;;;;13.92;100.00;102049.50;2100022;28;20054;-81
2022/12/04 06:12:10;;;;;;;13.80;7.97;;;;;;;13.93;100.00;102051.28;2091528;28;20459;-81
2022/12/04 06:13:32;;;;;;;11.43;6.03;;;;;;;13.93;100.00;102057.50;2094273;28;20057;-81
2022/12/04 06:14:56;;;;;;;10.00;5.88;;;;;;;13.95;100.00;102065.50;2096749;28;20080;-81
2022/12/04 06:16:21;;;;;;;11.60;5.82;;;;;;;13.94;100.00;102061.97;2094932;28;20089;-80
2022/12/04 06:17:43;;;;;;;9.25;5.38;;;;;;;13.94;100.00;102075.25;2087350;28;20049;-80
2022/12/04 06:19:07;;;;;;;8.07;5.05;;;;;;;13.95;100.00;102066.41;2099923;28;20048;-81
2022/12/04 06:20:29;;;;;;;9.35;4.85;;;;;;;14.00;100.00;102069.16;2102602;28;20044;-81
2022/12/04 06:21:53;;;;;;;8.93;5.28;;;;;;;14.05;100.00;102062.19;2086586;28;20492;-80
2022/12/04 06:23:16;;;;;;;10.57;5.55;;;;;;;14.16;100.00;102075.72;2092937;28;20048;-81
2022/12/04 06:24:39;;;;;;;9.82;4.90;;;;;;;14.28;100.00;102065.38;2096768;28;20577;-81
2022/12/04 06:26:03;;;;;;;9.02;4.95;;;;;;;14.45;100.00;102074.59;2094461;28;20059;-81
2022/12/04 06:27:25;;;;;;;9.80;5.05;;;;;;;14.64;100.00;102065.25;2098510;28;20100;-80
2022/12/04 06:28:48;;;;;;;11.45;5.78;;;;;;;14.81;100.00;102069.16;2102659;28;20044;-81
2022/12/04 06:30:11;;;;;;;8.13;4.20;;;;;;;14.95;100.00;102072.97;2091234;28;20492;-81
2022/12/04 06:31:35;;;;;;;9.13;4.63;;;;;;;15.04;100.00;102073.13;2093553;28;20103;-81
2022/12/04 06:32:57;;;;;;;8.75;4.20;;;;;;;15.16;100.00;102067.16;2101110;28;20047;-81
2022/12/04 06:34:18;;;;;;;9.10;4.60;;;;;;;15.24;100.00;102072.56;2094075;28;20045;-81
2022/12/04 06:35:40;;;;;;;10.13;4.57;;;;;;;15.30;100.00;102070.91;2098608;28;20036;-81
2022/12/04 06:37:02;;;;;;;7.97;4.50;;;;;;;15.37;100.00;102070.16;2093368;28;20539;-82
2022/12/04 06:38:26;;;;;;;7.50;4.47;;;;;;;15.42;100.00;102076.47;2094009;28;20049;-80
2022/12/04 06:39:48;;;;;;;8.73;4.78;;;;;;;15.42;100.00;102075.56;2093351;28;20048;-82